sensor_id;sensor_type;location;lat;lon;timestamp;temperature;humidity
24618;DHT22;12762;51.730;5.356;2022-09-09T00:04:29;15.80;78.40
24618;DHT22;12762;51.730;5.356;2022-09-09T00:07:16;15.80;78.50
24618;DHT22;12762;51.730;5.356;2022-09-09T00:15:13;15.70;78.70
24618;DHT22;12762;51.730;5.356;2022-09-09T00:17:51;15.70;78.90
24618;DHT22;12762;51.730;5.356;2022-09-09T00:20:39;15.60;78.80
24618;DHT22;12762;51.730;5.356;2022-09-09T00:23:30;15.60;79.50
24618;DHT22;12762;51.730;5.356;2022-09-09T00:26:02;15.60;78.80
24618;DHT22;12762;51.730;5.356;2022-09-09T00:28:34;15.60;78.90
24618;DHT22;12762;51.730;5.356;2022-09-09T00:31:16;15.50;79.00
24618;DHT22;12762;51.730;5.356;2022-09-09T00:33:46;15.50;78.90
24618;DHT22;12762;51.730;5.356;2022-09-09T00:36:17;15.50;79.00
24618;DHT22;12762;51.730;5.356;2022-09-09T00:38:51;15.50;79.10
24618;DHT22;12762;51.730;5.356;2022-09-09T00:41:40;15.50;79.10
24618;DHT22;12762;51.730;5.356;2022-09-09T00:53:26;15.40;78.70
24618;DHT22;12762;51.730;5.356;2022-09-09T00:58:27;15.40;78.90
24618;DHT22;12762;51.730;5.356;2022-09-09T01:01:04;15.40;78.90
24618;DHT22;12762;51.730;5.356;2022-09-09T01:03:53;15.40;79.00
24618;DHT22;12762;51.730;5.356;2022-09-09T01:06:29;15.40;78.80
24618;DHT22;12762;51.730;5.356;2022-09-09T01:11:27;15.30;79.20
24618;DHT22;12762;51.730;5.356;2022-09-09T01:16:47;15.30;79.00
24618;DHT22;12762;51.730;5.356;2022-09-09T01:19:24;15.20;79.30
24618;DHT22;12762;51.730;5.356;2022-09-09T01:22:01;15.20;79.40
24618;DHT22;12762;51.730;5.356;2022-09-09T01:25:01;15.20;79.50
24618;DHT22;12762;51.730;5.356;2022-09-09T01:27:29;15.20;79.60
24618;DHT22;12762;51.730;5.356;2022-09-09T01:29:56;15.20;79.50
24618;DHT22;12762;51.730;5.356;2022-09-09T01:35:09;15.10;79.50
24618;DHT22;12762;51.730;5.356;2022-09-09T01:37:37;15.10;79.80
24618;DHT22;12762;51.730;5.356;2022-09-09T01:40:05;15.10;79.80
24618;DHT22;12762;51.730;5.356;2022-09-09T01:42:32;15.10;79.90
24618;DHT22;12762;51.730;5.356;2022-09-09T01:44:59;15.10;80.00
24618;DHT22;12762;51.730;5.356;2022-09-09T01:47:26;15.10;80.10
24618;DHT22;12762;51.730;5.356;2022-09-09T01:49:53;15.10;80.20
24618;DHT22;12762;51.730;5.356;2022-09-09T01:52:19;15.10;80.20
24618;DHT22;12762;51.730;5.356;2022-09-09T01:54:46;15.10;80.30
24618;DHT22;12762;51.730;5.356;2022-09-09T01:57:24;15.10;80.40
24618;DHT22;12762;51.730;5.356;2022-09-09T02:03:03;15.10;80.50
24618;DHT22;12762;51.730;5.356;2022-09-09T02:05:39;15.10;80.30
24618;DHT22;12762;51.730;5.356;2022-09-09T02:08:20;15.10;80.50
24618;DHT22;12762;51.730;5.356;2022-09-09T02:10:59;15.10;80.50
24618;DHT22;12762;51.730;5.356;2022-09-09T02:13:29;15.00;80.50
24618;DHT22;12762;51.730;5.356;2022-09-09T02:16:28;15.00;80.70
24618;DHT22;12762;51.730;5.356;2022-09-09T02:19:17;15.00;80.70
24618;DHT22;12762;51.730;5.356;2022-09-09T02:21:51;15.00;80.60
24618;DHT22;12762;51.730;5.356;2022-09-09T02:24:20;15.00;80.80
24618;DHT22;12762;51.730;5.356;2022-09-09T02:26:50;15.00;80.80
24618;DHT22;12762;51.730;5.356;2022-09-09T02:29:31;15.00;80.90
24618;DHT22;12762;51.730;5.356;2022-09-09T02:32:03;15.00;80.80
24618;DHT22;12762;51.730;5.356;2022-09-09T02:34:36;15.00;81.00
24618;DHT22;12762;51.730;5.356;2022-09-09T02:37:08;15.00;81.00
24618;DHT22;12762;51.730;5.356;2022-09-09T02:39:36;15.00;81.10
24618;DHT22;12762;51.730;5.356;2022-09-09T02:42:04;15.00;81.20
24618;DHT22;12762;51.730;5.356;2022-09-09T02:44:31;15.00;81.20
24618;DHT22;12762;51.730;5.356;2022-09-09T02:57:49;15.00;81.40
24618;DHT22;12762;51.730;5.356;2022-09-09T03:00:23;14.90;81.30
24618;DHT22;12762;51.730;5.356;2022-09-09T03:02:50;15.00;81.40
24618;DHT22;12762;51.730;5.356;2022-09-09T03:05:17;14.90;81.30
24618;DHT22;12762;51.730;5.356;2022-09-09T03:07:44;14.90;81.40
24618;DHT22;12762;51.730;5.356;2022-09-09T03:10:14;14.90;81.40
24618;DHT22;12762;51.730;5.356;2022-09-09T03:12:41;14.90;81.60
24618;DHT22;12762;51.730;5.356;2022-09-09T03:15:08;14.90;81.60
24618;DHT22;12762;51.730;5.356;2022-09-09T03:17:34;14.90;81.60
24618;DHT22;12762;51.730;5.356;2022-09-09T03:20:03;14.90;81.60
24618;DHT22;12762;51.730;5.356;2022-09-09T03:22:30;14.90;81.70
24618;DHT22;12762;51.730;5.356;2022-09-09T03:24:57;14.90;81.70
24618;DHT22;12762;51.730;5.356;2022-09-09T03:27:24;14.90;81.70
24618;DHT22;12762;51.730;5.356;2022-09-09T03:29:50;14.90;81.80
24618;DHT22;12762;51.730;5.356;2022-09-09T03:32:18;14.90;81.90
24618;DHT22;12762;51.730;5.356;2022-09-09T03:34:45;14.90;81.90
24618;DHT22;12762;51.730;5.356;2022-09-09T03:37:13;14.90;82.00
24618;DHT22;12762;51.730;5.356;2022-09-09T03:39:40;15.00;82.10
24618;DHT22;12762;51.730;5.356;2022-09-09T03:42:07;14.90;82.00
24618;DHT22;12762;51.730;5.356;2022-09-09T03:44:34;15.00;82.20
24618;DHT22;12762;51.730;5.356;2022-09-09T03:47:01;15.00;82.20
24618;DHT22;12762;51.730;5.356;2022-09-09T03:49:28;15.00;82.20
24618;DHT22;12762;51.730;5.356;2022-09-09T03:51:56;15.00;82.30
24618;DHT22;12762;51.730;5.356;2022-09-09T03:54:24;15.00;82.40
24618;DHT22;12762;51.730;5.356;2022-09-09T03:56:51;15.00;82.40
24618;DHT22;12762;51.730;5.356;2022-09-09T03:59:18;15.00;82.50
24618;DHT22;12762;51.730;5.356;2022-09-09T04:01:44;15.00;82.50
24618;DHT22;12762;51.730;5.356;2022-09-09T04:04:12;14.90;82.50
24618;DHT22;12762;51.730;5.356;2022-09-09T04:06:39;14.90;82.60
24618;DHT22;12762;51.730;5.356;2022-09-09T04:09:05;14.90;82.60
24618;DHT22;12762;51.730;5.356;2022-09-09T04:11:32;14.90;82.80
24618;DHT22;12762;51.730;5.356;2022-09-09T04:13:59;14.90;82.90
24618;DHT22;12762;51.730;5.356;2022-09-09T04:16:27;14.90;82.90
24618;DHT22;12762;51.730;5.356;2022-09-09T04:18:53;14.90;82.90
24618;DHT22;12762;51.730;5.356;2022-09-09T04:21:20;14.90;83.00
24618;DHT22;12762;51.730;5.356;2022-09-09T04:23:47;14.90;83.00
24618;DHT22;12762;51.730;5.356;2022-09-09T04:26:14;14.90;83.00
24618;DHT22;12762;51.730;5.356;2022-09-09T04:28:41;15.00;83.10
24618;DHT22;12762;51.730;5.356;2022-09-09T04:31:16;15.00;83.10
24618;DHT22;12762;51.730;5.356;2022-09-09T04:33:44;15.00;83.10
24618;DHT22;12762;51.730;5.356;2022-09-09T04:36:11;15.00;83.10
24618;DHT22;12762;51.730;5.356;2022-09-09T04:38:39;15.00;83.20
24618;DHT22;12762;51.730;5.356;2022-09-09T04:41:06;15.00;83.20
24618;DHT22;12762;51.730;5.356;2022-09-09T04:43:34;15.00;83.30
24618;DHT22;12762;51.730;5.356;2022-09-09T04:46:00;15.00;83.30
24618;DHT22;12762;51.730;5.356;2022-09-09T04:48:28;15.00;83.30
24618;DHT22;12762;51.730;5.356;2022-09-09T04:51:03;15.00;83.40
24618;DHT22;12762;51.730;5.356;2022-09-09T04:53:31;15.10;83.60
24618;DHT22;12762;51.730;5.356;2022-09-09T04:56:07;15.00;83.40
24618;DHT22;12762;51.730;5.356;2022-09-09T04:58:34;15.00;83.50
24618;DHT22;12762;51.730;5.356;2022-09-09T05:01:17;15.00;83.60
24618;DHT22;12762;51.730;5.356;2022-09-09T05:03:45;15.00;83.50
24618;DHT22;12762;51.730;5.356;2022-09-09T05:06:14;15.00;83.60
24618;DHT22;12762;51.730;5.356;2022-09-09T05:08:42;15.00;83.60
24618;DHT22;12762;51.730;5.356;2022-09-09T05:11:22;15.00;83.70
24618;DHT22;12762;51.730;5.356;2022-09-09T05:13:55;15.00;83.70
24618;DHT22;12762;51.730;5.356;2022-09-09T05:16:23;15.00;83.80
24618;DHT22;12762;51.730;5.356;2022-09-09T05:18:52;15.00;83.80
24618;DHT22;12762;51.730;5.356;2022-09-09T05:21:21;15.00;83.90
24618;DHT22;12762;51.730;5.356;2022-09-09T05:23:48;15.10;84.10
24618;DHT22;12762;51.730;5.356;2022-09-09T05:26:20;15.10;84.10
24618;DHT22;12762;51.730;5.356;2022-09-09T05:28:49;15.10;84.20
24618;DHT22;12762;51.730;5.356;2022-09-09T05:31:18;15.10;84.20
24618;DHT22;12762;51.730;5.356;2022-09-09T05:33:47;15.10;84.30
24618;DHT22;12762;51.730;5.356;2022-09-09T05:36:20;15.20;84.40
24618;DHT22;12762;51.730;5.356;2022-09-09T05:38:48;15.20;84.80
24618;DHT22;12762;51.730;5.356;2022-09-09T05:41:16;15.20;84.40
24618;DHT22;12762;51.730;5.356;2022-09-09T05:43:44;15.20;84.40
24618;DHT22;12762;51.730;5.356;2022-09-09T05:46:17;15.30;84.60
24618;DHT22;12762;51.730;5.356;2022-09-09T05:48:45;15.30;84.50
24618;DHT22;12762;51.730;5.356;2022-09-09T05:51:27;15.30;84.60
24618;DHT22;12762;51.730;5.356;2022-09-09T05:53:59;15.40;84.50
24618;DHT22;12762;51.730;5.356;2022-09-09T05:56:28;15.40;84.50
24618;DHT22;12762;51.730;5.356;2022-09-09T05:59:00;15.50;84.60
24618;DHT22;12762;51.730;5.356;2022-09-09T06:01:30;15.50;84.50
24618;DHT22;12762;51.730;5.356;2022-09-09T06:03:57;15.60;84.70
24618;DHT22;12762;51.730;5.356;2022-09-09T06:06:31;15.60;84.60
24618;DHT22;12762;51.730;5.356;2022-09-09T06:08:59;15.70;85.50
24618;DHT22;12762;51.730;5.356;2022-09-09T06:11:29;15.70;84.70
24618;DHT22;12762;51.730;5.356;2022-09-09T06:14:03;15.70;84.70
24618;DHT22;12762;51.730;5.356;2022-09-09T06:16:33;15.80;84.70
24618;DHT22;12762;51.730;5.356;2022-09-09T06:19:01;15.90;85.60
24618;DHT22;12762;51.730;5.356;2022-09-09T06:21:35;15.90;84.80
24618;DHT22;12762;51.730;5.356;2022-09-09T06:24:06;16.00;84.80
24618;DHT22;12762;51.730;5.356;2022-09-09T06:26:38;16.10;84.80
24618;DHT22;12762;51.730;5.356;2022-09-09T06:29:07;16.10;84.70
24618;DHT22;12762;51.730;5.356;2022-09-09T06:31:35;16.20;84.60
24618;DHT22;12762;51.730;5.356;2022-09-09T06:34:08;16.30;84.60
24618;DHT22;12762;51.730;5.356;2022-09-09T06:36:37;16.40;84.50
24618;DHT22;12762;51.730;5.356;2022-09-09T06:39:05;16.40;84.30
24618;DHT22;12762;51.730;5.356;2022-09-09T06:41:40;16.40;84.30
24618;DHT22;12762;51.730;5.356;2022-09-09T06:44:07;16.50;84.30
24618;DHT22;12762;51.730;5.356;2022-09-09T06:46:34;16.50;84.30
24618;DHT22;12762;51.730;5.356;2022-09-09T06:49:02;16.60;84.30
24618;DHT22;12762;51.730;5.356;2022-09-09T06:51:34;16.60;84.10
24618;DHT22;12762;51.730;5.356;2022-09-09T06:54:02;16.60;84.00
24618;DHT22;12762;51.730;5.356;2022-09-09T06:56:32;16.60;84.00
24618;DHT22;12762;51.730;5.356;2022-09-09T06:59:01;16.60;84.00
24618;DHT22;12762;51.730;5.356;2022-09-09T07:01:30;16.60;84.00
24618;DHT22;12762;51.730;5.356;2022-09-09T07:03:59;16.70;84.00
24618;DHT22;12762;51.730;5.356;2022-09-09T07:06:31;16.70;84.10
24618;DHT22;12762;51.730;5.356;2022-09-09T07:09:00;16.70;84.00
24618;DHT22;12762;51.730;5.356;2022-09-09T07:11:30;16.80;84.20
24618;DHT22;12762;51.730;5.356;2022-09-09T07:13:58;16.90;84.30
24618;DHT22;12762;51.730;5.356;2022-09-09T07:16:26;17.00;84.00
24618;DHT22;12762;51.730;5.356;2022-09-09T07:18:58;17.10;84.00
24618;DHT22;12762;51.730;5.356;2022-09-09T07:21:26;17.20;83.50
24618;DHT22;12762;51.730;5.356;2022-09-09T07:23:54;17.30;83.30
24618;DHT22;12762;51.730;5.356;2022-09-09T07:26:26;17.30;83.10
24618;DHT22;12762;51.730;5.356;2022-09-09T07:28:53;17.40;82.90
24618;DHT22;12762;51.730;5.356;2022-09-09T07:31:26;17.50;82.80
24618;DHT22;12762;51.730;5.356;2022-09-09T07:33:54;17.70;83.70
24618;DHT22;12762;51.730;5.356;2022-09-09T07:36:23;17.70;82.00
24618;DHT22;12762;51.730;5.356;2022-09-09T07:38:57;17.70;81.60
24618;DHT22;12762;51.730;5.356;2022-09-09T07:41:34;17.70;81.50
24618;DHT22;12762;51.730;5.356;2022-09-09T07:44:06;17.70;81.40
24618;DHT22;12762;51.730;5.356;2022-09-09T07:46:37;17.70;81.40
24618;DHT22;12762;51.730;5.356;2022-09-09T07:49:13;17.70;82.10
24618;DHT22;12762;51.730;5.356;2022-09-09T07:51:43;17.70;81.30
24618;DHT22;12762;51.730;5.356;2022-09-09T07:54:12;17.70;81.40
24618;DHT22;12762;51.730;5.356;2022-09-09T07:56:40;17.80;81.50
24618;DHT22;12762;51.730;5.356;2022-09-09T07:59:07;17.90;81.30
24618;DHT22;12762;51.730;5.356;2022-09-09T08:01:40;17.90;81.00
24618;DHT22;12762;51.730;5.356;2022-09-09T08:04:10;18.00;81.00
24618;DHT22;12762;51.730;5.356;2022-09-09T08:06:44;18.00;81.00
24618;DHT22;12762;51.730;5.356;2022-09-09T08:09:13;18.10;80.90
24618;DHT22;12762;51.730;5.356;2022-09-09T08:11:41;18.30;80.90
24618;DHT22;12762;51.730;5.356;2022-09-09T08:14:09;18.30;80.30
24618;DHT22;12762;51.730;5.356;2022-09-09T08:16:41;18.30;80.10
24618;DHT22;12762;51.730;5.356;2022-09-09T08:19:08;18.40;80.00
24618;DHT22;12762;51.730;5.356;2022-09-09T08:21:36;18.40;79.80
24618;DHT22;12762;51.730;5.356;2022-09-09T08:24:09;18.40;79.60
24618;DHT22;12762;51.730;5.356;2022-09-09T08:26:39;18.50;79.70
24618;DHT22;12762;51.730;5.356;2022-09-09T08:29:09;18.50;79.50
24618;DHT22;12762;51.730;5.356;2022-09-09T08:31:39;18.40;79.20
24618;DHT22;12762;51.730;5.356;2022-09-09T08:34:06;18.40;79.10
24618;DHT22;12762;51.730;5.356;2022-09-09T08:36:36;18.40;79.10
24618;DHT22;12762;51.730;5.356;2022-09-09T08:39:05;18.40;79.00
24618;DHT22;12762;51.730;5.356;2022-09-09T08:42:03;18.40;79.60
24618;DHT22;12762;51.730;5.356;2022-09-09T08:47:27;18.40;79.10
24618;DHT22;12762;51.730;5.356;2022-09-09T08:55:35;18.60;79.00
24618;DHT22;12762;51.730;5.356;2022-09-09T08:58:28;18.60;78.70
24618;DHT22;12762;51.730;5.356;2022-09-09T09:04:41;18.60;78.20
24618;DHT22;12762;51.730;5.356;2022-09-09T09:10:24;18.60;78.20
24618;DHT22;12762;51.730;5.356;2022-09-09T09:13:25;18.70;78.30
24618;DHT22;12762;51.730;5.356;2022-09-09T09:16:02;18.70;78.00
24618;DHT22;12762;51.730;5.356;2022-09-09T09:18:31;18.70;77.90
24618;DHT22;12762;51.730;5.356;2022-09-09T09:21:08;18.80;77.80
24618;DHT22;12762;51.730;5.356;2022-09-09T09:23:45;18.90;77.60
24618;DHT22;12762;51.730;5.356;2022-09-09T09:26:14;18.90;78.20
24618;DHT22;12762;51.730;5.356;2022-09-09T09:28:41;18.90;77.20
24618;DHT22;12762;51.730;5.356;2022-09-09T09:31:15;18.90;77.30
24618;DHT22;12762;51.730;5.356;2022-09-09T09:33:55;18.80;77.00
24618;DHT22;12762;51.730;5.356;2022-09-09T09:36:25;18.80;77.00
24618;DHT22;12762;51.730;5.356;2022-09-09T09:39:00;18.80;77.20
24618;DHT22;12762;51.730;5.356;2022-09-09T09:41:47;18.80;77.10
24618;DHT22;12762;51.730;5.356;2022-09-09T09:47:04;18.70;77.70
24618;DHT22;12762;51.730;5.356;2022-09-09T09:49:34;18.70;77.00
24618;DHT22;12762;51.730;5.356;2022-09-09T09:52:05;18.70;77.10
24618;DHT22;12762;51.730;5.356;2022-09-09T09:54:39;18.50;77.30
24618;DHT22;12762;51.730;5.356;2022-09-09T09:57:13;18.30;77.40
24618;DHT22;12762;51.730;5.356;2022-09-09T09:59:41;18.20;78.20
24618;DHT22;12762;51.730;5.356;2022-09-09T10:02:21;18.00;78.50
24618;DHT22;12762;51.730;5.356;2022-09-09T10:05:25;17.90;79.00
24618;DHT22;12762;51.730;5.356;2022-09-09T10:08:20;17.90;79.00
24618;DHT22;12762;51.730;5.356;2022-09-09T10:19:09;17.70;80.20
24618;DHT22;12762;51.730;5.356;2022-09-09T10:28:16;18.00;80.70
24618;DHT22;12762;51.730;5.356;2022-09-09T10:34:00;18.00;80.00
24618;DHT22;12762;51.730;5.356;2022-09-09T10:36:28;18.00;80.00
24618;DHT22;12762;51.730;5.356;2022-09-09T10:42:07;17.90;80.40
24618;DHT22;12762;51.730;5.356;2022-09-09T10:53:31;18.10;81.50
24618;DHT22;12762;51.730;5.356;2022-09-09T10:56:10;18.20;81.30
24618;DHT22;12762;51.730;5.356;2022-09-09T10:58:40;18.20;81.10
24618;DHT22;12762;51.730;5.356;2022-09-09T11:01:19;18.30;81.20
24618;DHT22;12762;51.730;5.356;2022-09-09T11:03:53;18.40;81.30
24618;DHT22;12762;51.730;5.356;2022-09-09T11:06:28;18.40;81.20
24618;DHT22;12762;51.730;5.356;2022-09-09T11:08:57;18.50;81.20
24618;DHT22;12762;51.730;5.356;2022-09-09T11:11:36;18.60;81.10
24618;DHT22;12762;51.730;5.356;2022-09-09T11:14:12;18.60;80.90
24618;DHT22;12762;51.730;5.356;2022-09-09T11:16:53;18.60;80.90
24618;DHT22;12762;51.730;5.356;2022-09-09T11:19:35;18.60;80.40
24618;DHT22;12762;51.730;5.356;2022-09-09T11:22:30;18.60;80.60
24618;DHT22;12762;51.730;5.356;2022-09-09T11:38:53;18.50;80.40
24618;DHT22;12762;51.730;5.356;2022-09-09T11:41:34;18.40;80.60
24618;DHT22;12762;51.730;5.356;2022-09-09T11:44:17;18.40;80.70
24618;DHT22;12762;51.730;5.356;2022-09-09T11:46:46;18.40;80.80
24618;DHT22;12762;51.730;5.356;2022-09-09T11:49:40;18.40;81.00
24618;DHT22;12762;51.730;5.356;2022-09-09T11:52:35;18.50;81.20
24618;DHT22;12762;51.730;5.356;2022-09-09T11:55:12;18.70;81.30
24618;DHT22;12762;51.730;5.356;2022-09-09T11:58:04;18.80;80.90
24618;DHT22;12762;51.730;5.356;2022-09-09T12:00:48;18.80;80.70
24618;DHT22;12762;51.730;5.356;2022-09-09T12:03:44;18.80;80.40
24618;DHT22;12762;51.730;5.356;2022-09-09T12:06:19;18.80;80.50
24618;DHT22;12762;51.730;5.356;2022-09-09T12:08:51;18.70;80.30
24618;DHT22;12762;51.730;5.356;2022-09-09T12:11:30;18.70;80.50
24618;DHT22;12762;51.730;5.356;2022-09-09T12:14:04;18.70;80.50
24618;DHT22;12762;51.730;5.356;2022-09-09T12:16:34;18.70;80.70
24618;DHT22;12762;51.730;5.356;2022-09-09T12:19:13;18.80;80.70
24618;DHT22;12762;51.730;5.356;2022-09-09T12:25:26;18.90;80.70
24618;DHT22;12762;51.730;5.356;2022-09-09T12:28:11;19.10;80.30
24618;DHT22;12762;51.730;5.356;2022-09-09T12:30:57;19.10;80.20
24618;DHT22;12762;51.730;5.356;2022-09-09T12:33:34;19.20;79.90
24618;DHT22;12762;51.730;5.356;2022-09-09T12:36:03;19.30;79.90
24618;DHT22;12762;51.730;5.356;2022-09-09T12:38:36;19.30;80.60
24618;DHT22;12762;51.730;5.356;2022-09-09T12:41:03;19.40;79.50
24618;DHT22;12762;51.730;5.356;2022-09-09T12:43:31;19.40;79.30
24618;DHT22;12762;51.730;5.356;2022-09-09T12:46:02;19.40;79.50
24618;DHT22;12762;51.730;5.356;2022-09-09T12:48:37;19.50;79.60
24618;DHT22;12762;51.730;5.356;2022-09-09T12:51:07;19.60;79.40
24618;DHT22;12762;51.730;5.356;2022-09-09T12:53:42;19.60;79.00
24618;DHT22;12762;51.730;5.356;2022-09-09T12:56:23;19.70;79.10
24618;DHT22;12762;51.730;5.356;2022-09-09T12:58:54;19.80;78.70
24618;DHT22;12762;51.730;5.356;2022-09-09T13:01:28;19.80;78.50
24618;DHT22;12762;51.730;5.356;2022-09-09T13:03:56;19.80;78.40
24618;DHT22;12762;51.730;5.356;2022-09-09T13:06:30;19.80;78.40
24618;DHT22;12762;51.730;5.356;2022-09-09T13:09:00;19.80;78.20
24618;DHT22;12762;51.730;5.356;2022-09-09T13:11:37;19.80;78.10
24618;DHT22;12762;51.730;5.356;2022-09-09T13:14:05;19.80;78.10
24618;DHT22;12762;51.730;5.356;2022-09-09T13:16:34;19.80;78.00
24618;DHT22;12762;51.730;5.356;2022-09-09T13:19:10;19.90;77.60
24618;DHT22;12762;51.730;5.356;2022-09-09T13:21:40;20.00;77.50
24618;DHT22;12762;51.730;5.356;2022-09-09T13:24:30;20.00;77.30
24618;DHT22;12762;51.730;5.356;2022-09-09T13:27:04;20.10;77.30
24618;DHT22;12762;51.730;5.356;2022-09-09T13:29:32;20.20;77.10
24618;DHT22;12762;51.730;5.356;2022-09-09T13:32:17;20.30;76.80
24618;DHT22;12762;51.730;5.356;2022-09-09T13:35:23;20.40;76.50
24618;DHT22;12762;51.730;5.356;2022-09-09T13:37:50;20.40;76.10
24618;DHT22;12762;51.730;5.356;2022-09-09T13:40:19;20.30;75.90
24618;DHT22;12762;51.730;5.356;2022-09-09T13:42:50;20.30;75.80
24618;DHT22;12762;51.730;5.356;2022-09-09T13:45:26;20.30;75.80
24618;DHT22;12762;51.730;5.356;2022-09-09T13:47:55;20.30;75.90
24618;DHT22;12762;51.730;5.356;2022-09-09T13:50:27;20.30;75.80
24618;DHT22;12762;51.730;5.356;2022-09-09T13:52:56;20.20;75.50
24618;DHT22;12762;51.730;5.356;2022-09-09T13:55:28;20.20;75.50
24618;DHT22;12762;51.730;5.356;2022-09-09T13:58:00;20.20;75.50
24618;DHT22;12762;51.730;5.356;2022-09-09T14:00:34;20.30;75.70
24618;DHT22;12762;51.730;5.356;2022-09-09T14:03:03;20.50;76.00
24618;DHT22;12762;51.730;5.356;2022-09-09T14:05:32;20.70;75.90
24618;DHT22;12762;51.730;5.356;2022-09-09T14:08:00;20.80;75.20
24618;DHT22;12762;51.730;5.356;2022-09-09T14:10:27;20.80;74.70
24618;DHT22;12762;51.730;5.356;2022-09-09T14:12:54;20.70;74.60
24618;DHT22;12762;51.730;5.356;2022-09-09T14:15:21;20.60;74.60
24618;DHT22;12762;51.730;5.356;2022-09-09T14:17:48;20.60;74.80
24618;DHT22;12762;51.730;5.356;2022-09-09T14:20:15;20.60;75.00
24618;DHT22;12762;51.730;5.356;2022-09-09T14:22:44;20.70;74.90
24618;DHT22;12762;51.730;5.356;2022-09-09T14:25:11;20.70;74.70
24618;DHT22;12762;51.730;5.356;2022-09-09T14:27:40;20.70;74.50
24618;DHT22;12762;51.730;5.356;2022-09-09T14:30:08;20.70;74.80
24618;DHT22;12762;51.730;5.356;2022-09-09T14:32:38;20.70;74.50
24618;DHT22;12762;51.730;5.356;2022-09-09T14:35:05;20.70;74.50
24618;DHT22;12762;51.730;5.356;2022-09-09T14:37:32;20.70;74.40
24618;DHT22;12762;51.730;5.356;2022-09-09T14:39:59;20.80;74.10
24618;DHT22;12762;51.730;5.356;2022-09-09T14:42:29;20.90;73.70
24618;DHT22;12762;51.730;5.356;2022-09-09T14:44:56;20.90;73.70
24618;DHT22;12762;51.730;5.356;2022-09-09T14:47:23;20.90;73.50
24618;DHT22;12762;51.730;5.356;2022-09-09T14:49:50;21.10;73.20
24618;DHT22;12762;51.730;5.356;2022-09-09T14:52:17;21.20;72.90
24618;DHT22;12762;51.730;5.356;2022-09-09T14:54:44;21.30;72.20
24618;DHT22;12762;51.730;5.356;2022-09-09T14:57:11;21.20;72.10
24618;DHT22;12762;51.730;5.356;2022-09-09T14:59:37;21.10;72.00
24618;DHT22;12762;51.730;5.356;2022-09-09T15:02:04;21.00;72.30
24618;DHT22;12762;51.730;5.356;2022-09-09T15:04:31;21.00;72.70
24618;DHT22;12762;51.730;5.356;2022-09-09T15:06:58;20.80;73.80
24618;DHT22;12762;51.730;5.356;2022-09-09T15:09:25;20.60;73.50
24618;DHT22;12762;51.730;5.356;2022-09-09T15:11:52;20.50;74.10
24618;DHT22;12762;51.730;5.356;2022-09-09T15:14:19;20.40;74.60
24618;DHT22;12762;51.730;5.356;2022-09-09T15:16:50;20.20;74.80
24618;DHT22;12762;51.730;5.356;2022-09-09T15:19:17;20.10;75.20
24618;DHT22;12762;51.730;5.356;2022-09-09T15:21:45;20.00;75.60
24618;DHT22;12762;51.730;5.356;2022-09-09T15:24:11;19.90;75.90
24618;DHT22;12762;51.730;5.356;2022-09-09T15:26:40;19.80;76.20
24618;DHT22;12762;51.730;5.356;2022-09-09T15:29:07;19.80;76.20
24618;DHT22;12762;51.730;5.356;2022-09-09T15:31:35;19.70;76.30
24618;DHT22;12762;51.730;5.356;2022-09-09T15:34:04;19.60;76.40
24618;DHT22;12762;51.730;5.356;2022-09-09T15:36:34;19.50;76.30
24618;DHT22;12762;51.730;5.356;2022-09-09T15:39:09;19.40;76.40
24618;DHT22;12762;51.730;5.356;2022-09-09T15:41:39;19.30;76.60
24618;DHT22;12762;51.730;5.356;2022-09-09T15:44:07;19.30;76.90
24618;DHT22;12762;51.730;5.356;2022-09-09T15:46:39;19.20;76.80
24618;DHT22;12762;51.730;5.356;2022-09-09T15:49:09;19.10;76.70
24618;DHT22;12762;51.730;5.356;2022-09-09T15:51:59;19.10;76.90
24618;DHT22;12762;51.730;5.356;2022-09-09T15:54:36;19.00;76.80
24618;DHT22;12762;51.730;5.356;2022-09-09T15:57:07;18.90;77.10
24618;DHT22;12762;51.730;5.356;2022-09-09T15:59:35;19.00;77.50
24618;DHT22;12762;51.730;5.356;2022-09-09T16:02:02;19.00;77.60
24618;DHT22;12762;51.730;5.356;2022-09-09T16:04:29;19.10;77.80
24618;DHT22;12762;51.730;5.356;2022-09-09T16:07:01;19.30;77.80
24618;DHT22;12762;51.730;5.356;2022-09-09T16:09:32;19.40;77.60
24618;DHT22;12762;51.730;5.356;2022-09-09T16:12:00;19.50;77.50
24618;DHT22;12762;51.730;5.356;2022-09-09T16:14:28;19.60;77.10
24618;DHT22;12762;51.730;5.356;2022-09-09T16:16:55;19.60;77.10
24618;DHT22;12762;51.730;5.356;2022-09-09T16:19:23;19.60;77.00
24618;DHT22;12762;51.730;5.356;2022-09-09T16:21:49;19.60;76.80
24618;DHT22;12762;51.730;5.356;2022-09-09T16:24:18;19.50;76.90
24618;DHT22;12762;51.730;5.356;2022-09-09T16:26:55;19.40;77.60
24618;DHT22;12762;51.730;5.356;2022-09-09T16:29:22;19.40;76.90
24618;DHT22;12762;51.730;5.356;2022-09-09T16:31:50;19.30;77.00
24618;DHT22;12762;51.730;5.356;2022-09-09T16:34:17;19.20;77.10
24618;DHT22;12762;51.730;5.356;2022-09-09T16:36:48;19.20;77.40
24618;DHT22;12762;51.730;5.356;2022-09-09T16:39:17;19.10;78.30
24618;DHT22;12762;51.730;5.356;2022-09-09T16:41:46;19.10;77.80
24618;DHT22;12762;51.730;5.356;2022-09-09T16:44:15;19.00;78.00
24618;DHT22;12762;51.730;5.356;2022-09-09T16:46:44;19.00;78.20
24618;DHT22;12762;51.730;5.356;2022-09-09T16:49:13;19.00;79.10
24618;DHT22;12762;51.730;5.356;2022-09-09T16:51:48;18.90;78.40
24618;DHT22;12762;51.730;5.356;2022-09-09T16:54:17;18.90;78.40
24618;DHT22;12762;51.730;5.356;2022-09-09T16:56:46;18.90;78.60
24618;DHT22;12762;51.730;5.356;2022-09-09T16:59:16;18.80;78.80
24618;DHT22;12762;51.730;5.356;2022-09-09T17:01:45;18.80;78.80
24618;DHT22;12762;51.730;5.356;2022-09-09T17:04:17;18.70;79.00
24618;DHT22;12762;51.730;5.356;2022-09-09T17:06:49;18.70;79.20
24618;DHT22;12762;51.730;5.356;2022-09-09T17:09:17;18.70;79.30
24618;DHT22;12762;51.730;5.356;2022-09-09T17:11:44;18.70;79.40
24618;DHT22;12762;51.730;5.356;2022-09-09T17:14:15;18.70;79.50
24618;DHT22;12762;51.730;5.356;2022-09-09T17:16:43;18.80;79.70
24618;DHT22;12762;51.730;5.356;2022-09-09T17:19:10;18.70;79.50
24618;DHT22;12762;51.730;5.356;2022-09-09T17:21:37;18.70;79.50
24618;DHT22;12762;51.730;5.356;2022-09-09T17:24:28;18.70;79.50
24618;DHT22;12762;51.730;5.356;2022-09-09T17:26:56;18.70;79.60
24618;DHT22;12762;51.730;5.356;2022-09-09T17:29:24;18.70;79.60
24618;DHT22;12762;51.730;5.356;2022-09-09T17:31:51;18.70;79.70
24618;DHT22;12762;51.730;5.356;2022-09-09T17:34:18;18.70;79.70
24618;DHT22;12762;51.730;5.356;2022-09-09T17:36:45;18.70;79.60
24618;DHT22;12762;51.730;5.356;2022-09-09T17:39:12;18.60;79.50
24618;DHT22;12762;51.730;5.356;2022-09-09T17:41:39;18.60;79.50
24618;DHT22;12762;51.730;5.356;2022-09-09T17:44:09;18.60;79.50
24618;DHT22;12762;51.730;5.356;2022-09-09T17:46:41;18.60;79.60